Time;durP1;ratioP1;P1;durP2;ratioP2;P2;SDS_P1;SDS_P2;PMS_P1;PMS_P2;Temp;Humidity;BMP_temperature;BMP_pressure;BME280_temperature;BME280_humidity;BME280_pressure;Samples;Min_cycle;Max_cycle;Signal;HPM_P1;HPM_P2
2023/08/04 00:00:36;;;;;;;18.20;5.80;;;15.30;98.50;;;;;;5039957;28;20033;-68
2023/08/04 00:03:01;;;;;;;19.30;5.72;;;15.30;98.60;;;;;;5043115;28;20041;-68
2023/08/04 00:05:27;;;;;;;16.73;5.85;;;15.30;98.70;;;;;;5043137;28;20116;-68
2023/08/04 00:07:54;;;;;;;14.23;5.70;;;15.20;98.70;;;;;;5042203;28;20171;-68
2023/08/04 00:10:19;;;;;;;18.40;6.03;;;15.20;98.70;;;;;;5037786;28;20040;-68
2023/08/04 00:12:45;;;;;;;17.10;5.63;;;15.10;98.90;;;;;;5044475;28;20037;-68
2023/08/04 00:15:10;;;;;;;20.30;5.88;;;15.10;99.00;;;;;;5043311;28;20469;-68
2023/08/04 00:17:38;;;;;;;15.80;6.05;;;15.20;99.20;;;;;;5035752;28;20064;-68
2023/08/04 00:20:08;;;;;;;18.95;6.40;;;15.20;99.20;;;;;;5046393;28;20026;-68
2023/08/04 00:22:34;;;;;;;20.15;7.00;;;15.10;99.20;;;;;;5037518;28;20034;-68
2023/08/04 00:25:00;;;;;;;20.02;7.13;;;15.10;99.20;;;;;;5043802;28;20049;-68
2023/08/04 00:27:25;;;;;;;26.48;6.93;;;15.10;99.40;;;;;;5053323;28;20044;-68
2023/08/04 00:29:50;;;;;;;18.85;6.90;;;15.10;99.30;;;;;;5036622;28;20033;-68
2023/08/04 00:32:16;;;;;;;18.92;6.18;;;15.10;99.40;;;;;;5048326;28;20055;-68
2023/08/04 00:34:41;;;;;;;18.50;6.15;;;15.20;99.40;;;;;;5041356;28;20049;-68
2023/08/04 00:37:07;;;;;;;21.45;6.80;;;15.20;99.30;;;;;;5060566;28;20033;-68
2023/08/04 00:39:32;;;;;;;13.98;6.28;;;15.20;99.30;;;;;;5052410;28;20037;-68
2023/08/04 00:41:58;;;;;;;15.80;6.68;;;15.10;99.20;;;;;;5049995;28;20835;-68
2023/08/04 00:44:23;;;;;;;19.52;5.97;;;15.10;99.20;;;;;;5039006;28;20125;-68
2023/08/04 00:46:49;;;;;;;17.85;6.63;;;15.10;99.20;;;;;;5051899;28;20044;-68
2023/08/04 00:49:16;;;;;;;21.75;6.32;;;15.10;99.20;;;;;;5058017;28;20033;-68
2023/08/04 00:51:41;;;;;;;23.48;6.18;;;15.10;99.10;;;;;;5061475;28;20066;-68
2023/08/04 00:54:07;;;;;;;17.58;5.82;;;15.00;99.10;;;;;;5047140;28;20037;-68
2023/08/04 00:56:34;;;;;;;21.25;6.57;;;15.00;99.20;;;;;;5049465;28;20853;-68
2023/08/04 00:58:59;;;;;;;13.88;5.43;;;14.90;99.20;;;;;;5037854;28;20044;-68
2023/08/04 01:01:25;;;;;;;20.00;5.97;;;14.90;99.20;;;;;;5048019;28;20380;-68
2023/08/04 01:03:52;;;;;;;17.88;5.57;;;14.90;99.20;;;;;;5043302;28;20059;-68
2023/08/04 01:06:39;;;;;;;14.75;5.43;;;14.80;99.10;;;;;;5054286;28;20033;-68
2023/08/04 01:09:14;;;;;;;16.98;5.15;;;14.80;99.10;;;;;;5038625;28;20473;-68
2023/08/04 01:11:46;;;;;;;15.38;5.57;;;14.80;99.20;;;;;;5051086;28;20033;-68
2023/08/04 01:14:14;;;;;;;19.20;5.70;;;14.80;99.30;;;;;;5048739;28;20037;-68
2023/08/04 01:16:39;;;;;;;15.52;5.63;;;14.80;99.20;;;;;;5041737;28;20032;-68
2023/08/04 01:19:05;;;;;;;16.30;5.05;;;14.80;99.20;;;;;;5051734;28;20427;-68
2023/08/04 01:21:41;;;;;;;15.40;5.80;;;14.80;99.20;;;;;;5045148;28;20037;-68
2023/08/04 01:24:06;;;;;;;16.85;5.10;;;14.80;99.30;;;;;;5050978;28;20033;-68
2023/08/04 01:26:37;;;;;;;18.75;4.97;;;14.80;99.10;;;;;;5051947;28;20102;-68
2023/08/04 01:29:05;;;;;;;15.75;5.30;;;14.80;99.10;;;;;;5051420;28;20106;-68
2023/08/04 01:31:31;;;;;;;15.20;5.07;;;14.80;99.20;;;;;;5046578;28;20145;-68
2023/08/04 01:33:57;;;;;;;15.13;5.03;;;14.80;99.10;;;;;;5059874;28;20032;-69
2023/08/04 01:36:22;;;;;;;19.90;5.15;;;14.80;99.20;;;;;;5039549;28;20037;-68
2023/08/04 01:38:48;;;;;;;10.43;4.57;;;14.80;99.10;;;;;;5043591;28;20465;-68
2023/08/04 01:41:13;;;;;;;14.15;5.05;;;14.80;99.10;;;;;;5048039;28;20142;-68
2023/08/04 01:43:38;;;;;;;17.55;4.97;;;14.90;99.10;;;;;;5056195;28;20032;-68
2023/08/04 01:46:04;;;;;;;14.15;5.07;;;14.90;99.00;;;;;;5058028;28;20435;-68
2023/08/04 01:48:29;;;;;;;10.20;4.75;;;14.90;98.90;;;;;;5051152;28;20027;-68
2023/08/04 01:50:55;;;;;;;14.73;4.90;;;14.90;98.80;;;;;;5057399;28;20025;-68
2023/08/04 01:53:21;;;;;;;17.10;4.90;;;14.90;98.90;;;;;;5049092;28;20608;-68
2023/08/04 01:55:49;;;;;;;13.15;4.70;;;14.90;98.90;;;;;;5051283;28;20055;-68
2023/08/04 01:58:15;;;;;;;11.55;4.65;;;14.90;98.80;;;;;;5046558;28;20061;-68
2023/08/04 02:00:41;;;;;;;17.08;5.03;;;14.90;98.90;;;;;;5044107;28;20079;-68
2023/08/04 02:03:06;;;;;;;18.83;4.60;;;14.90;98.80;;;;;;5051093;28;20068;-68
2023/08/04 02:05:32;;;;;;;15.18;4.65;;;14.90;98.80;;;;;;5053827;28;20424;-68
2023/08/04 02:07:57;;;;;;;13.65;4.25;;;14.80;98.90;;;;;;5047066;28;20117;-68
2023/08/04 02:10:23;;;;;;;13.85;4.57;;;14.80;98.90;;;;;;5038878;28;20104;-68
2023/08/04 02:12:48;;;;;;;12.43;4.95;;;14.80;98.90;;;;;;5054229;28;20032;-68
2023/08/04 02:15:14;;;;;;;15.10;5.07;;;14.80;98.90;;;;;;5037724;28;20100;-68
2023/08/04 02:17:39;;;;;;;15.80;4.95;;;14.70;99.00;;;;;;5044761;28;20432;-68
2023/08/04 02:20:05;;;;;;;15.95;4.88;;;14.70;99.10;;;;;;5049259;28;20027;-68
2023/08/04 02:22:31;;;;;;;16.13;4.80;;;14.70;99.10;;;;;;5054590;28;20033;-68
2023/08/04 02:24:56;;;;;;;15.02;5.18;;;14.70;99.20;;;;;;5038709;28;20056;-68
2023/08/04 02:27:22;;;;;;;12.48;4.75;;;14.70;99.20;;;;;;5042462;28;20037;-68
2023/08/04 02:29:47;;;;;;;15.02;5.32;;;14.70;99.20;;;;;;5038348;28;20473;-68
2023/08/04 02:32:13;;;;;;;13.93;4.43;;;14.70;99.20;;;;;;5041831;28;20052;-68
2023/08/04 02:34:38;;;;;;;20.00;4.80;;;14.70;99.20;;;;;;5043212;28;20389;-68
2023/08/04 02:37:04;;;;;;;19.60;4.97;;;14.70;99.20;;;;;;5047661;28;20028;-68
2023/08/04 02:39:33;;;;;;;13.75;4.97;;;14.80;99.10;;;;;;5054632;28;20032;-68
2023/08/04 02:41:59;;;;;;;22.48;4.82;;;14.80;99.10;;;;;;5049176;28;20089;-68
2023/08/04 02:44:24;;;;;;;12.35;4.70;;;14.80;99.10;;;;;;5050259;28;20037;-68
2023/08/04 02:46:50;;;;;;;17.42;5.18;;;14.70;99.10;;;;;;5049512;28;20517;-68
2023/08/04 02:49:15;;;;;;;12.55;4.22;;;14.80;99.00;;;;;;5043126;28;20045;-68
2023/08/04 02:51:41;;;;;;;10.07;4.10;;;14.80;98.90;;;;;;5054201;28;20468;-68
2023/08/04 02:54:09;;;;;;;12.02;3.97;;;14.80;98.90;;;;;;5043700;28;20052;-68
2023/08/04 02:56:35;;;;;;;11.02;3.83;;;14.80;98.80;;;;;;5044320;28;20037;-68
2023/08/04 02:59:01;;;;;;;11.98;3.88;;;14.70;98.90;;;;;;5042863;28;20107;-68
2023/08/04 03:01:26;;;;;;;12.90;3.53;;;14.80;98.80;;;;;;5047248;28;20477;-68
2023/08/04 03:03:52;;;;;;;15.18;4.18;;;14.80;98.90;;;;;;5040234;28;20040;-68
2023/08/04 03:06:17;;;;;;;15.95;4.13;;;14.70;98.80;;;;;;5048773;28;20055;-68
2023/08/04 03:08:43;;;;;;;17.55;4.30;;;14.80;98.80;;;;;;5047612;28;20033;-68
2023/08/04 03:11:10;;;;;;;15.10;3.83;;;14.80;98.80;;;;;;5039032;28;20037;-68
2023/08/04 03:13:36;;;;;;;11.82;3.50;;;14.70;98.80;;;;;;5046944;28;20029;-68
2023/08/04 03:16:01;;;;;;;9.55;3.67;;;14.80;98.90;;;;;;5048358;28;20381;-68
2023/08/04 03:18:27;;;;;;;16.17;3.90;;;14.70;98.90;;;;;;5043418;28;20033;-68
2023/08/04 03:20:54;;;;;;;11.30;3.63;;;14.70;98.80;;;;;;5045460;28;20038;-68
2023/08/04 03:23:21;;;;;;;14.48;4.00;;;14.70;98.90;;;;;;5033203;28;20036;-68
2023/08/04 03:25:47;;;;;;;9.95;3.53;;;14.70;99.00;;;;;;5039781;28;20405;-68
2023/08/04 03:28:14;;;;;;;12.77;3.45;;;14.70;98.90;;;;;;5038282;28;20041;-68
2023/08/04 03:30:40;;;;;;;8.10;3.92;;;14.70;98.90;;;;;;5044795;28;20475;-68
2023/08/04 03:33:05;;;;;;;13.77;3.53;;;14.80;98.80;;;;;;5045944;28;20028;-68
2023/08/04 03:35:31;;;;;;;15.80;4.28;;;14.80;98.80;;;;;;5037216;28;20387;-68
2023/08/04 03:37:56;;;;;;;12.32;4.07;;;14.80;98.60;;;;;;5046300;28;20025;-68
2023/08/04 03:40:22;;;;;;;12.60;3.97;;;14.80;98.60;;;;;;5038659;28;20038;-68
2023/08/04 03:42:47;;;;;;;8.43;3.92;;;14.80;98.50;;;;;;5047131;28;20366;-68
2023/08/04 03:45:13;;;;;;;7.88;3.28;;;14.70;98.40;;;;;;5044611;28;20044;-69
2023/08/04 03:47:38;;;;;;;9.15;3.40;;;14.70;98.40;;;;;;5040120;28;20354;-68
2023/08/04 03:50:05;;;;;;;10.80;4.25;;;14.60;98.40;;;;;;5045629;28;20480;-68
2023/08/04 03:52:31;;;;;;;9.43;3.63;;;14.70;98.40;;;;;;5049314;28;20048;-68
2023/08/04 03:54:57;;;;;;;15.50;4.05;;;14.60;98.40;;;;;;5055545;28;20024;-68
2023/08/04 03:57:22;;;;;;;11.05;4.13;;;14.60;98.40;;;;;;5053230;28;20409;-68
2023/08/04 03:59:49;;;;;;;11.32;3.60;;;14.50;98.50;;;;;;5049011;28;20055;-68
2023/08/04 04:02:15;;;;;;;11.65;4.10;;;14.50;98.50;;;;;;5044748;28;20036;-68
2023/08/04 04:04:40;;;;;;;13.43;4.55;;;14.50;98.60;;;;;;5049061;28;20362;-68
2023/08/04 04:07:06;;;;;;;12.48;4.05;;;14.50;98.70;;;;;;5056637;28;20042;-68
2023/08/04 04:09:31;;;;;;;10.82;4.15;;;14.40;98.70;;;;;;5061567;28;20109;-68
2023/08/04 04:11:57;;;;;;;11.38;4.30;;;14.30;98.80;;;;;;5047536;28;20021;-68
2023/08/04 04:14:22;;;;;;;13.02;4.45;;;14.30;98.90;;;;;;5044850;28;20461;-68
2023/08/04 04:16:48;;;;;;;10.75;3.80;;;14.30;98.90;;;;;;5044919;28;20469;-68
2023/08/04 04:19:13;;;;;;;10.13;3.90;;;14.30;98.90;;;;;;5049398;28;20908;-68
2023/08/04 04:21:38;;;;;;;14.77;4.47;;;14.20;98.90;;;;;;5045161;28;20060;-68
2023/08/04 04:24:04;;;;;;;10.20;4.10;;;14.10;99.00;;;;;;5052880;28;20036;-68
2023/08/04 04:26:29;;;;;;;11.20;4.45;;;14.10;99.10;;;;;;5045747;28;20041;-68
2023/08/04 04:28:55;;;;;;;11.38;5.05;;;14.10;99.30;;;;;;5042825;28;20051;-66
2023/08/04 04:31:20;;;;;;;10.45;4.20;;;14.20;99.30;;;;;;5044890;28;20040;-67
2023/08/04 04:33:46;;;;;;;9.98;4.40;;;14.20;99.30;;;;;;5054726;28;20040;-67
2023/08/04 04:36:11;;;;;;;16.67;4.70;;;14.20;99.30;;;;;;5049763;28;20073;-68
2023/08/04 04:38:37;;;;;;;15.52;4.63;;;14.30;99.30;;;;;;5060314;28;20377;-67
2023/08/04 04:41:02;;;;;;;11.90;4.90;;;14.30;99.20;;;;;;5050278;28;20033;-67
2023/08/04 04:43:29;;;;;;;16.38;4.53;;;14.30;99.20;;;;;;5047100;28;20384;-67
2023/08/04 04:45:55;;;;;;;18.33;4.90;;;14.40;99.30;;;;;;5043663;28;20479;-67
2023/08/04 04:48:23;;;;;;;14.10;5.00;;;14.50;99.20;;;;;;5039073;28;20040;-67
2023/08/04 04:50:52;;;;;;;15.15;4.15;;;14.50;99.10;;;;;;5050226;28;20444;-67
2023/08/04 04:53:18;;;;;;;16.98;4.40;;;14.60;99.10;;;;;;5047125;28;20037;-67
2023/08/04 04:55:43;;;;;;;8.55;4.18;;;14.60;99.00;;;;;;5044456;28;20032;-67
2023/08/04 04:58:09;;;;;;;14.10;4.47;;;14.70;98.90;;;;;;5038827;28;20045;-67
2023/08/04 05:00:35;;;;;;;10.85;4.20;;;14.70;98.70;;;;;;5045254;28;20037;-67
2023/08/04 05:03:04;;;;;;;10.13;4.05;;;14.80;98.60;;;;;;5051243;28;20025;-67
2023/08/04 05:05:29;;;;;;;12.55;4.25;;;14.80;98.50;;;;;;5038455;28;20025;-67
2023/08/04 05:07:55;;;;;;;15.23;4.07;;;14.90;98.40;;;;;;5041479;28;20429;-67
2023/08/04 05:10:20;;;;;;;7.25;3.60;;;15.00;98.40;;;;;;5039441;28;20046;-67
2023/08/04 05:12:46;;;;;;;6.72;3.20;;;15.00;98.20;;;;;;5044791;28;20079;-68
2023/08/04 05:15:11;;;;;;;11.48;3.60;;;15.00;98.20;;;;;;5046052;28;20036;-68
2023/08/04 05:17:37;;;;;;;11.23;3.70;;;15.00;98.10;;;;;;5050210;28;20033;-67
2023/08/04 05:20:03;;;;;;;13.70;3.47;;;15.10;98.10;;;;;;5051734;28;20033;-67
2023/08/04 05:22:29;;;;;;;9.70;3.75;;;15.10;98.00;;;;;;5051373;28;20079;-67
2023/08/04 05:24:54;;;;;;;11.70;3.50;;;15.20;97.90;;;;;;5059517;28;20484;-68
2023/08/04 05:27:19;;;;;;;11.45;3.67;;;15.20;97.90;;;;;;5058305;28;20037;-67
2023/08/04 05:29:45;;;;;;;8.73;3.10;;;15.30;97.80;;;;;;5051614;28;20423;-67
2023/08/04 05:32:10;;;;;;;9.85;3.38;;;15.30;97.60;;;;;;5050051;28;20029;-67
2023/08/04 05:34:36;;;;;;;10.98;3.80;;;15.40;97.60;;;;;;5053298;28;20072;-68
2023/08/04 05:37:01;;;;;;;9.18;3.78;;;15.40;97.60;;;;;;5043909;28;20025;-67
2023/08/04 05:39:27;;;;;;;12.60;3.92;;;15.40;97.50;;;;;;5046341;28;20036;-68
2023/08/04 05:41:52;;;;;;;11.15;4.03;;;15.30;97.40;;;;;;5052365;28;20180;-67
2023/08/04 05:44:18;;;;;;;10.43;3.97;;;15.40;97.30;;;;;;5041489;28;20031;-68
2023/08/04 05:46:43;;;;;;;11.43;4.00;;;15.40;97.20;;;;;;5047151;28;20036;-67
2023/08/04 05:49:09;;;;;;;9.02;3.60;;;15.40;97.20;;;;;;5050798;28;20106;-67
2023/08/04 05:51:34;;;;;;;9.60;3.50;;;15.50;97.20;;;;;;5045944;28;20045;-68
2023/08/04 05:54:00;;;;;;;11.65;3.88;;;15.50;97.20;;;;;;5047268;28;20560;-67
2023/08/04 05:56:25;;;;;;;13.85;3.78;;;15.50;96.90;;;;;;5046438;28;20037;-67
2023/08/04 05:58:50;;;;;;;14.13;4.05;;;15.60;96.70;;;;;;5047548;28;20045;-67
2023/08/04 06:01:16;;;;;;;10.18;4.00;;;15.70;96.90;;;;;;5044530;28;20029;-68
2023/08/04 06:03:41;;;;;;;10.10;3.58;;;15.70;96.60;;;;;;5046286;28;20075;-67
2023/08/04 06:06:07;;;;;;;11.57;3.47;;;15.80;96.40;;;;;;5048236;28;20082;-68
2023/08/04 06:08:33;;;;;;;11.95;3.17;;;15.90;96.60;;;;;;5046951;28;20041;-68
2023/08/04 06:10:58;;;;;;;10.05;3.75;;;15.90;96.30;;;;;;5044539;28;20021;-67
2023/08/04 06:13:24;;;;;;;7.72;2.92;;;15.90;96.10;;;;;;5049900;28;20065;-67
2023/08/04 06:15:49;;;;;;;12.23;3.60;;;15.90;96.00;;;;;;5046682;28;20025;-67
2023/08/04 06:18:15;;;;;;;9.60;3.60;;;15.90;96.20;;;;;;5045565;28;20075;-67
2023/08/04 06:20:40;;;;;;;10.88;3.28;;;15.90;95.70;;;;;;5049703;28;20052;-67
2023/08/04 06:23:06;;;;;;;10.77;2.90;;;16.00;95.80;;;;;;5041248;28;20041;-67
2023/08/04 06:25:32;;;;;;;16.13;2.97;;;16.10;95.60;;;;;;5048593;28;20523;-67
2023/08/04 06:27:58;;;;;;;11.77;3.58;;;16.30;95.40;;;;;;5052029;28;20796;-67
2023/08/04 06:30:25;;;;;;;10.45;2.90;;;16.40;95.00;;;;;;5046951;28;20033;-67
2023/08/04 06:32:50;;;;;;;12.75;3.35;;;16.40;94.90;;;;;;5049560;28;20036;-67
2023/08/04 06:35:16;;;;;;;12.43;3.28;;;16.50;94.60;;;;;;5052173;28;20025;-67
2023/08/04 06:37:41;;;;;;;8.95;3.20;;;16.40;94.20;;;;;;5045992;28;20037;-68
2023/08/04 06:40:08;;;;;;;14.05;3.20;;;16.40;94.00;;;;;;5052676;28;20035;-68
2023/08/04 06:42:33;;;;;;;11.88;2.85;;;16.50;94.60;;;;;;5042897;28;20064;-68
2023/08/04 06:45:01;;;;;;;9.27;3.03;;;16.60;94.50;;;;;;5041062;28;20083;-68
2023/08/04 06:47:26;;;;;;;11.35;3.25;;;16.60;93.80;;;;;;5050610;28;20040;-68
2023/08/04 06:49:52;;;;;;;8.38;2.40;;;16.80;93.70;;;;;;5040038;28;20473;-67
2023/08/04 06:52:17;;;;;;;6.95;2.10;;;16.90;93.50;;;;;;5042462;28;20393;-68
2023/08/04 06:54:43;;;;;;;11.05;2.40;;;17.00;93.10;;;;;;5041930;28;20456;-67
2023/08/04 06:57:08;;;;;;;12.20;2.40;;;17.10;92.90;;;;;;5045972;28;20065;-68
2023/08/04 06:59:34;;;;;;;8.88;2.42;;;17.10;92.50;;;;;;5038044;28;20039;-67
2023/08/04 07:02:00;;;;;;;6.13;2.10;;;17.10;91.60;;;;;;5043894;28;20037;-68
2023/08/04 07:04:25;;;;;;;9.57;2.40;;;17.20;91.80;;;;;;5046893;28;20025;-68
2023/08/04 07:06:51;;;;;;;8.18;2.03;;;17.10;91.70;;;;;;5047859;28;20072;-67
2023/08/04 07:09:16;;;;;;;6.60;2.25;;;17.10;91.40;;;;;;5051996;28;20477;-68
2023/08/04 07:11:42;;;;;;;7.32;1.85;;;17.20;91.70;;;;;;5049434;28;20037;-67
2023/08/04 07:14:07;;;;;;;4.28;1.83;;;17.10;91.70;;;;;;5040674;28;20496;-69
2023/08/04 07:16:33;;;;;;;8.98;1.92;;;17.20;91.30;;;;;;5038815;28;20040;-68
2023/08/04 07:18:58;;;;;;;4.15;1.75;;;17.10;91.20;;;;;;5047366;28;20098;-68
2023/08/04 07:21:24;;;;;;;6.18;1.80;;;17.20;91.20;;;;;;5046635;28;20524;-67
2023/08/04 07:23:49;;;;;;;5.18;1.60;;;17.20;91.10;;;;;;5044968;28;20036;-68
2023/08/04 07:26:15;;;;;;;4.43;1.48;;;17.30;91.20;;;;;;5048557;28;20053;-68
2023/08/04 07:28:40;;;;;;;8.77;1.90;;;17.30;90.50;;;;;;5045714;28;20032;-68
2023/08/04 07:31:08;;;;;;;7.20;1.70;;;17.40;91.00;;;;;;5044129;28;20041;-67
2023/08/04 07:33:35;;;;;;;9.80;2.33;;;17.50;90.10;;;;;;5041991;28;20421;-68
2023/08/04 07:36:01;;;;;;;6.65;2.15;;;17.50;90.00;;;;;;5044209;28;20040;-67
2023/08/04 07:38:28;;;;;;;9.73;1.67;;;17.60;90.20;;;;;;5037790;28;20044;-68
2023/08/04 07:40:53;;;;;;;8.38;2.00;;;17.70;89.90;;;;;;5041196;28;20033;-68
2023/08/04 07:43:19;;;;;;;7.78;1.77;;;17.80;89.60;;;;;;5047717;28;20397;-67
2023/08/04 07:45:44;;;;;;;6.78;1.42;;;17.80;89.40;;;;;;5046425;28;20031;-67
2023/08/04 07:48:10;;;;;;;5.70;1.65;;;17.80;89.60;;;;;;5042301;28;20127;-67
2023/08/04 07:50:40;;;;;;;4.03;1.50;;;18.00;89.80;;;;;;5041271;28;20438;-68
2023/08/04 07:53:06;;;;;;;10.60;2.20;;;17.80;88.70;;;;;;5039381;28;20037;-66
2023/08/04 07:55:36;;;;;;;9.00;1.75;;;17.90;89.30;;;;;;5035742;28;20040;-66
2023/08/04 07:58:06;;;;;;;11.65;2.28;;;17.80;89.20;;;;;;5047452;28;20520;-67
2023/08/04 08:00:31;;;;;;;6.15;1.73;;;17.80;89.50;;;;;;5045812;28;20369;-66
2023/08/04 08:02:57;;;;;;;4.53;1.73;;;17.60;89.90;;;;;;5044812;28;20036;-66
2023/08/04 08:05:22;;;;;;;28.20;5.47;;;17.50;90.00;;;;;;5045784;28;20102;-67
2023/08/04 08:07:48;;;;;;;7.57;1.70;;;17.40;90.30;;;;;;5036736;28;20033;-67
2023/08/04 08:10:13;;;;;;;5.93;1.88;;;17.30;90.40;;;;;;5041914;28;20034;-67
2023/08/04 08:12:39;;;;;;;8.15;1.67;;;17.30;90.70;;;;;;5042705;28;20404;-67
2023/08/04 08:15:05;;;;;;;5.43;1.80;;;17.30;90.60;;;;;;5042033;28;20036;-67
2023/08/04 08:17:31;;;;;;;8.57;2.60;;;17.40;90.60;;;;;;5047000;28;20037;-65
2023/08/04 08:19:57;;;;;;;4.72;1.45;;;17.40;90.70;;;;;;5047747;28;20106;-68
2023/08/04 08:22:22;;;;;;;8.68;1.70;;;17.40;89.60;;;;;;5054314;28;20477;-68
2023/08/04 08:24:53;;;;;;;7.22;1.65;;;17.50;89.00;;;;;;5048504;28;20049;-67
2023/08/04 08:27:18;;;;;;;4.75;1.67;;;17.60;89.10;;;;;;5046741;28;20048;-67
2023/08/04 08:29:43;;;;;;;6.90;1.63;;;17.70;89.10;;;;;;5044238;28;20381;-67
2023/08/04 08:32:09;;;;;;;6.60;1.75;;;17.70;88.30;;;;;;5048218;28;20538;-67
2023/08/04 08:34:34;;;;;;;5.97;1.45;;;17.90;88.60;;;;;;5042444;28;20056;-66
2023/08/04 08:37:02;;;;;;;6.80;1.70;;;17.80;88.30;;;;;;5045474;28;20116;-67
2023/08/04 08:39:28;;;;;;;5.68;1.90;;;18.00;89.00;;;;;;5043350;28;20029;-67
2023/08/04 08:41:54;;;;;;;6.40;1.98;;;18.00;89.80;;;;;;5058693;28;20032;-66
2023/08/04 08:44:19;;;;;;;4.18;1.58;;;17.80;90.40;;;;;;5045145;28;20033;-67
2023/08/04 08:46:45;;;;;;;6.72;1.92;;;17.50;90.90;;;;;;5049591;28;20116;-68
2023/08/04 08:49:12;;;;;;;6.20;2.00;;;17.50;91.00;;;;;;5049721;28;20037;-66
2023/08/04 08:51:44;;;;;;;3.53;1.30;;;17.70;90.20;;;;;;5058030;28;20025;-67
2023/08/04 08:54:10;;;;;;;4.10;1.42;;;17.80;89.60;;;;;;5044297;28;20032;-66
2023/08/04 08:56:36;;;;;;;6.38;1.50;;;17.90;89.10;;;;;;5055121;28;20034;-66
2023/08/04 08:59:02;;;;;;;4.35;1.23;;;18.00;88.60;;;;;;5039924;28;20036;-67
2023/08/04 09:01:28;;;;;;;5.75;1.48;;;18.00;89.10;;;;;;5043658;28;20028;-67
2023/08/04 09:03:54;;;;;;;2.67;1.17;;;17.90;88.90;;;;;;5037438;28;20056;-69
2023/08/04 09:06:19;;;;;;;4.72;1.60;;;17.80;89.30;;;;;;5041533;28;20499;-70
2023/08/04 09:08:45;;;;;;;2.78;0.88;;;17.70;90.20;;;;;;5041752;28;20124;-67
2023/08/04 09:11:11;;;;;;;3.70;0.80;;;17.70;88.30;;;;;;5049816;28;20457;-67
2023/08/04 09:13:41;;;;;;;2.28;1.00;;;17.70;87.90;;;;;;5042679;28;20382;-70
2023/08/04 09:16:08;;;;;;;3.38;0.80;;;17.90;87.00;;;;;;5037494;28;20039;-68
2023/08/04 09:18:38;;;;;;;4.07;0.70;;;18.00;87.40;;;;;;5050802;28;20113;-67
2023/08/04 09:21:07;;;;;;;2.70;0.57;;;18.30;86.90;;;;;;5044828;28;20033;-67
2023/08/04 09:23:35;;;;;;;3.10;0.60;;;18.30;86.20;;;;;;5039615;28;21636;-67
2023/08/04 09:26:01;;;;;;;3.63;1.00;;;18.50;85.80;;;;;;5036660;28;20049;-67
2023/08/04 09:28:27;;;;;;;3.85;0.82;;;18.80;86.50;;;;;;5043491;28;20346;-68
2023/08/04 09:31:01;;;;;;;3.17;0.73;;;18.70;84.10;;;;;;5039156;28;20381;-67
2023/08/04 09:33:26;;;;;;;3.40;0.85;;;19.00;85.50;;;;;;5038184;28;20036;-68
2023/08/04 09:36:03;;;;;;;1.85;0.80;;;19.40;85.00;;;;;;5046779;28;20029;-67
2023/08/04 09:38:28;;;;;;;1.60;0.55;;;19.30;83.60;;;;;;5042787;28;20088;-67
2023/08/04 09:41:06;;;;;;;2.05;0.60;;;19.50;82.90;;;;;;5039612;28;20025;-67
2023/08/04 09:43:32;;;;;;;4.57;0.80;;;19.80;81.10;;;;;;5043393;28;20111;-71
2023/08/04 09:46:01;;;;;;;2.20;0.70;;;20.10;80.00;;;;;;5045656;28;20095;-68
2023/08/04 09:48:27;;;;;;;3.00;0.50;;;20.50;81.00;;;;;;5048257;28;20029;-70
2023/08/04 09:51:04;;;;;;;4.20;0.88;;;20.30;79.50;;;;;;5052753;28;20039;-68
2023/08/04 09:53:30;;;;;;;0.70;0.50;;;20.00;80.10;;;;;;5045948;28;20053;-68
2023/08/04 09:55:57;;;;;;;1.58;0.50;;;20.00;80.90;;;;;;5056772;28;20413;-68
2023/08/04 09:58:23;;;;;;;1.98;0.60;;;19.90;81.70;;;;;;5047734;28;20039;-67
2023/08/04 10:00:48;;;;;;;2.90;0.70;;;19.90;81.80;;;;;;5039801;28;20068;-67
2023/08/04 10:03:15;;;;;;;2.25;0.65;;;20.00;81.70;;;;;;5045466;28;20059;-67
2023/08/04 10:05:40;;;;;;;2.88;0.47;;;19.90;80.90;;;;;;5042689;28;20451;-70
2023/08/04 10:08:06;;;;;;;1.63;0.60;;;19.80;80.70;;;;;;5044858;28;20189;-67
2023/08/04 10:10:32;;;;;;;1.02;0.50;;;20.20;80.40;;;;;;5037808;28;20037;-67
2023/08/04 10:12:58;;;;;;;3.67;0.80;;;20.40;78.70;;;;;;5046743;28;20521;-67
2023/08/04 10:15:25;;;;;;;1.65;0.60;;;20.90;77.20;;;;;;5045666;28;20060;-67
2023/08/04 10:17:50;;;;;;;2.53;0.40;;;21.00;78.10;;;;;;5044924;28;20475;-68
2023/08/04 10:20:16;;;;;;;2.50;0.60;;;21.40;75.40;;;;;;5043836;28;20033;-68
2023/08/04 10:22:43;;;;;;;2.95;0.70;;;22.00;74.50;;;;;;5048584;28;20145;-68
2023/08/04 10:25:13;;;;;;;4.10;0.70;;;21.40;74.00;;;;;;5042621;28;20053;-68
2023/08/04 10:27:46;;;;;;;2.17;0.50;;;20.90;74.90;;;;;;5039585;28;20115;-68
2023/08/04 10:30:12;;;;;;;2.47;0.60;;;20.50;76.10;;;;;;5052483;28;20385;-67
2023/08/04 10:32:39;;;;;;;3.17;0.65;;;20.00;76.50;;;;;;5042168;28;20033;-67
2023/08/04 10:35:06;;;;;;;1.17;0.60;;;19.50;79.40;;;;;;5042407;28;20017;-67
2023/08/04 10:37:45;;;;;;;2.05;0.50;;;18.70;85.90;;;;;;5044734;28;20037;-66
2023/08/04 10:40:11;;;;;;;4.55;0.85;;;18.00;87.50;;;;;;5041690;28;20401;-66
2023/08/04 10:42:57;;;;;;;4.57;0.90;;;17.20;89.80;;;;;;5046525;28;20036;-69
2023/08/04 10:45:23;;;;;;;2.78;0.80;;;16.80;92.10;;;;;;5035976;28;21092;-67
2023/08/04 10:47:53;;;;;;;2.55;0.80;;;16.50;92.40;;;;;;5048943;28;20036;-66
2023/08/04 10:50:19;;;;;;;1.95;0.82;;;16.50;94.30;;;;;;5045296;28;20029;-67
2023/08/04 10:52:45;;;;;;;2.50;1.15;;;16.50;94.60;;;;;;5036428;28;20033;-67
2023/08/04 10:55:12;;;;;;;2.85;1.05;;;16.40;94.10;;;;;;5041860;28;20039;-68
2023/08/04 10:57:39;;;;;;;3.42;1.10;;;16.40;94.40;;;;;;5033666;28;20033;-67
2023/08/04 11:00:07;;;;;;;1.98;1.10;;;16.30;94.80;;;;;;5048234;28;20030;-67
2023/08/04 11:02:34;;;;;;;2.85;1.30;;;16.50;95.60;;;;;;5055345;28;20480;-67
2023/08/04 11:05:01;;;;;;;5.13;1.48;;;16.70;95.20;;;;;;5048930;28;20025;-67
2023/08/04 11:07:27;;;;;;;4.00;1.38;;;16.70;94.50;;;;;;5038797;28;20033;-70
2023/08/04 11:09:53;;;;;;;3.13;1.80;;;17.00;94.00;;;;;;5039541;28;20602;-67
2023/08/04 11:12:19;;;;;;;3.80;1.75;;;17.50;93.70;;;;;;5046307;28;20025;-67
2023/08/04 11:14:45;;;;;;;4.55;1.52;;;17.90;93.00;;;;;;5053146;28;20483;-67
2023/08/04 11:17:15;;;;;;;2.58;1.20;;;18.60;92.50;;;;;;5042245;28;20032;-67
2023/08/04 11:19:45;;;;;;;3.15;1.23;;;18.50;89.50;;;;;;5048743;28;20094;-67
2023/08/04 11:22:16;;;;;;;3.38;1.30;;;18.90;90.60;;;;;;5040714;28;20033;-68
2023/08/04 11:24:44;;;;;;;2.92;1.00;;;19.40;88.30;;;;;;5044242;28;20106;-67
2023/08/04 11:27:12;;;;;;;3.00;1.17;;;19.60;87.50;;;;;;5040163;28;20102;-67
2023/08/04 11:29:38;;;;;;;3.15;1.17;;;20.00;86.50;;;;;;5044845;28;20029;-68
2023/08/04 11:32:11;;;;;;;3.42;1.17;;;19.70;85.40;;;;;;5043437;28;20032;-67
2023/08/04 11:34:39;;;;;;;2.15;0.82;;;19.50;85.30;;;;;;5039336;28;20096;-68
2023/08/04 11:37:05;;;;;;;2.42;0.98;;;19.20;85.60;;;;;;5043441;28;20369;-67
2023/08/04 11:39:31;;;;;;;5.70;0.85;;;19.00;86.80;;;;;;5038582;28;20041;-67
2023/08/04 11:41:56;;;;;;;2.70;0.63;;;18.90;85.60;;;;;;5036500;28;20052;-68
2023/08/04 11:44:22;;;;;;;1.17;0.60;;;18.90;85.60;;;;;;5048500;28;20037;-67
2023/08/04 11:46:48;;;;;;;1.45;0.80;;;19.20;83.70;;;;;;5041952;28;20034;-68
2023/08/04 11:49:15;;;;;;;2.50;0.80;;;20.20;83.10;;;;;;5042295;28;20025;-75
2023/08/04 11:51:44;;;;;;;1.92;0.82;;;20.60;79.30;;;;;;5040744;28;20505;-67
2023/08/04 11:54:20;;;;;;;1.65;0.80;;;20.40;77.80;;;;;;5042698;28;20400;-67
2023/08/04 11:56:46;;;;;;;1.60;0.80;;;20.60;78.60;;;;;;5039855;28;20032;-68
2023/08/04 11:59:12;;;;;;;2.55;0.70;;;21.10;76.10;;;;;;5036705;28;20033;-67
2023/08/04 12:01:38;;;;;;;1.73;0.60;;;21.60;74.70;;;;;;5040865;28;20059;-68
2023/08/04 12:04:19;;;;;;;1.98;0.60;;;22.00;71.90;;;;;;5041948;28;20061;-69
2023/08/04 12:06:45;;;;;;;5.10;0.80;;;22.30;68.50;;;;;;5043211;28;20052;-68
2023/08/04 12:09:11;;;;;;;1.65;0.70;;;22.40;68.80;;;;;;5038268;28;20080;-67
2023/08/04 12:11:48;;;;;;;2.80;0.60;;;22.70;67.80;;;;;;5054595;28;20485;-68
2023/08/04 12:14:14;;;;;;;4.60;0.90;;;22.40;69.50;;;;;;5039005;28;20026;-67
2023/08/04 12:17:00;;;;;;;1.60;0.50;;;22.50;71.00;;;;;;5049195;28;20036;-68
2023/08/04 12:19:28;;;;;;;2.75;0.70;;;23.00;67.70;;;;;;5043979;28;20029;-67
2023/08/04 12:22:00;;;;;;;3.17;0.63;;;23.20;68.00;;;;;;5053336;28;20043;-70
2023/08/04 12:24:26;;;;;;;2.63;0.60;;;23.40;68.30;;;;;;5047235;28;20083;-68
2023/08/04 12:26:53;;;;;;;3.72;0.73;;;23.30;66.70;;;;;;5039723;28;20028;-68
2023/08/04 12:29:19;;;;;;;4.03;0.82;;;23.20;66.10;;;;;;5042752;28;20099;-67
2023/08/04 12:31:44;;;;;;;1.95;0.52;;;23.60;66.70;;;;;;5050349;28;20116;-68
2023/08/04 12:34:10;;;;;;;4.50;1.00;;;23.70;67.10;;;;;;5042564;28;20473;-68
2023/08/04 12:36:36;;;;;;;1.77;0.47;;;23.90;66.00;;;;;;5040893;28;20102;-68
2023/08/04 12:39:05;;;;;;;3.40;0.70;;;24.40;63.50;;;;;;5046913;28;20040;-69